Time;durP1;ratioP1;P1;durP2;ratioP2;P2;SDS_P1;SDS_P2;PMS_P1;PMS_P2;Temp;Humidity;BMP_temperature;BMP_pressure;BME280_temperature;BME280_humidity;BME280_pressure;Samples;Min_cycle;Max_cycle;Signal;HPM_P1;HPM_P2
2023/12/04 00:00:48;;;;;;;45.25;23.75;;;1.80;99.90;;;;;;5021983;28;20219;-38
2023/12/04 00:03:13;;;;;;;43.35;22.60;;;1.90;99.90;;;;;;5022269;28;20206;-36
2023/12/04 00:05:43;;;;;;;41.95;23.08;;;1.80;99.90;;;;;;5021683;28;20266;-37
2023/12/04 00:08:09;;;;;;;43.28;22.85;;;1.80;99.90;;;;;;5020584;28;20579;-36
2023/12/04 00:10:35;;;;;;;44.20;22.73;;;1.80;99.90;;;;;;5022623;28;20287;-39
2023/12/04 00:13:01;;;;;;;45.83;23.23;;;1.80;99.90;;;;;;5000013;28;20180;-36
2023/12/04 00:15:26;;;;;;;46.42;22.63;;;1.80;99.90;;;;;;5021913;28;20180;-36
2023/12/04 00:17:52;;;;;;;44.95;25.10;;;1.80;99.90;;;;;;5021583;28;20223;-36
2023/12/04 00:20:18;;;;;;;44.42;23.80;;;1.80;99.90;;;;;;5021941;28;20184;-36
2023/12/04 00:22:45;;;;;;;49.00;25.98;;;1.80;99.90;;;;;;5053318;28;20207;-38
2023/12/04 00:25:11;;;;;;;42.15;24.23;;;1.80;99.90;;;;;;5020585;28;20210;-38
2023/12/04 00:27:37;;;;;;;47.67;26.05;;;1.80;99.90;;;;;;5020148;28;20193;-37
2023/12/04 00:30:06;;;;;;;46.35;23.80;;;1.90;99.90;;;;;;5021660;28;20184;-37
2023/12/04 00:32:32;;;;;;;43.42;24.45;;;1.80;99.90;;;;;;5036282;28;20199;-36
2023/12/04 00:34:58;;;;;;;43.47;24.17;;;1.80;99.90;;;;;;5021324;28;21413;-36
2023/12/04 00:37:25;;;;;;;46.72;25.85;;;1.90;99.90;;;;;;5021566;28;20234;-37
2023/12/04 00:39:51;;;;;;;43.10;24.67;;;1.90;99.90;;;;;;5021990;28;20275;-36
2023/12/04 00:42:17;;;;;;;46.30;24.80;;;1.90;99.90;;;;;;5019940;28;20338;-36
2023/12/04 00:44:43;;;;;;;46.95;24.42;;;1.80;99.90;;;;;;5021160;28;20180;-38
2023/12/04 00:47:09;;;;;;;44.90;24.45;;;1.80;99.90;;;;;;5036308;28;20215;-38
2023/12/04 00:49:36;;;;;;;44.38;24.50;;;1.80;99.90;;;;;;5021896;28;21031;-36
2023/12/04 00:52:02;;;;;;;46.40;25.50;;;1.90;99.90;;;;;;5021156;28;20600;-37
2023/12/04 00:54:28;;;;;;;42.63;23.98;;;1.90;99.90;;;;;;5021380;28;20211;-37
2023/12/04 00:56:54;;;;;;;44.42;23.00;;;1.80;99.90;;;;;;5020948;28;20664;-35
2023/12/04 00:59:20;;;;;;;43.70;24.05;;;1.80;99.90;;;;;;5021195;28;20240;-36
2023/12/04 01:01:46;;;;;;;45.08;24.48;;;1.80;99.90;;;;;;5021432;28;20191;-37
2023/12/04 01:04:12;;;;;;;46.42;24.25;;;1.80;99.90;;;;;;5019447;28;21303;-38
2023/12/04 01:06:38;;;;;;;43.45;23.88;;;1.80;99.90;;;;;;5020622;28;20326;-36
2023/12/04 01:09:04;;;;;;;42.03;23.48;;;1.80;99.90;;;;;;5021058;28;20229;-38
2023/12/04 01:11:29;;;;;;;44.28;22.73;;;1.80;99.90;;;;;;5020938;28;20191;-37
2023/12/04 01:13:55;;;;;;;46.97;24.48;;;1.80;99.90;;;;;;5020128;28;20196;-36
2023/12/04 01:16:21;;;;;;;46.42;24.52;;;1.80;99.90;;;;;;5021218;28;20191;-38
2023/12/04 01:18:47;;;;;;;40.33;22.55;;;1.80;99.90;;;;;;5019501;28;20196;-38
2023/12/04 01:21:14;;;;;;;41.55;23.58;;;1.80;99.90;;;;;;5020956;28;20188;-39
2023/12/04 01:23:40;;;;;;;40.15;23.00;;;1.80;99.90;;;;;;5052387;28;20727;-37
2023/12/04 01:26:06;;;;;;;42.97;22.98;;;1.80;99.90;;;;;;5019684;28;20581;-37
2023/12/04 01:28:32;;;;;;;39.25;22.38;;;1.80;99.90;;;;;;5023250;28;20636;-37
2023/12/04 01:30:58;;;;;;;38.63;22.33;;;1.80;99.90;;;;;;5024953;28;20254;-36
2023/12/04 01:33:24;;;;;;;39.50;21.70;;;1.80;99.90;;;;;;5024672;28;20589;-34
2023/12/04 01:35:50;;;;;;;39.88;23.25;;;1.80;99.90;;;;;;5024605;28;20194;-36
2023/12/04 01:38:16;;;;;;;41.35;22.10;;;1.80;99.90;;;;;;5025284;28;20194;-37
2023/12/04 01:40:42;;;;;;;37.55;22.25;;;1.80;99.90;;;;;;5024789;28;20196;-38
2023/12/04 01:43:07;;;;;;;40.40;22.48;;;1.80;99.90;;;;;;5024291;28;20195;-36
2023/12/04 01:45:33;;;;;;;42.53;23.00;;;1.80;99.90;;;;;;5025146;28;21923;-36
2023/12/04 01:47:59;;;;;;;39.10;21.60;;;1.80;99.90;;;;;;5024501;28;21421;-36
2023/12/04 01:50:25;;;;;;;37.72;21.58;;;1.80;99.90;;;;;;5024585;28;20184;-37
2023/12/04 01:52:53;;;;;;;42.45;22.58;;;1.80;99.90;;;;;;5024256;28;20250;-40
2023/12/04 01:55:19;;;;;;;41.50;22.95;;;1.80;99.90;;;;;;5022983;28;20262;-35
2023/12/04 01:57:45;;;;;;;42.70;24.00;;;1.80;99.90;;;;;;5024615;28;20231;-36
2023/12/04 02:00:13;;;;;;;39.75;23.15;;;1.80;99.90;;;;;;5024366;28;20183;-38
2023/12/04 02:02:39;;;;;;;41.88;23.45;;;1.80;99.90;;;;;;5055775;28;20184;-37
2023/12/04 02:05:08;;;;;;;41.08;22.20;;;1.80;99.90;;;;;;5024487;28;20950;-36
2023/12/04 02:07:36;;;;;;;39.15;21.77;;;1.80;99.90;;;;;;5023940;28;20198;-39
2023/12/04 02:10:03;;;;;;;38.33;22.42;;;1.80;99.90;;;;;;5023589;28;20267;-40
2023/12/04 02:12:29;;;;;;;40.20;22.05;;;1.80;99.90;;;;;;5022908;28;20191;-40
2023/12/04 02:14:56;;;;;;;38.20;22.25;;;1.80;99.90;;;;;;5024233;28;20246;-35
2023/12/04 02:17:24;;;;;;;41.95;23.70;;;1.80;99.90;;;;;;5024053;28;20219;-36
2023/12/04 02:19:50;;;;;;;41.30;23.50;;;1.80;99.90;;;;;;5023481;28;20203;-45
2023/12/04 02:22:18;;;;;;;42.28;23.67;;;1.90;99.90;;;;;;5023616;28;20727;-37
2023/12/04 02:24:47;;;;;;;38.30;21.95;;;1.90;99.90;;;;;;5023350;28;20191;-35
2023/12/04 02:27:25;;;;;;;37.47;22.08;;;1.80;99.90;;;;;;5023943;28;20243;-37
2023/12/04 02:29:55;;;;;;;39.42;21.65;;;1.80;99.90;;;;;;5023762;28;20270;-37
2023/12/04 02:32:23;;;;;;;41.28;22.52;;;1.80;99.90;;;;;;5022648;28;20180;-39
2023/12/04 02:34:50;;;;;;;38.35;22.38;;;1.80;99.90;;;;;;5022894;28;20283;-34
2023/12/04 02:37:17;;;;;;;39.85;20.77;;;1.80;99.90;;;;;;5023817;28;20196;-35
2023/12/04 02:39:43;;;;;;;41.78;22.65;;;1.80;99.90;;;;;;5023244;28;20563;-39
2023/12/04 02:42:13;;;;;;;40.97;22.90;;;1.80;99.90;;;;;;5023803;28;20648;-36
2023/12/04 02:44:39;;;;;;;37.70;20.85;;;1.80;99.90;;;;;;5023589;28;20199;-38
2023/12/04 02:47:05;;;;;;;42.20;23.05;;;1.80;99.90;;;;;;5023943;28;20285;-38
2023/12/04 02:49:31;;;;;;;38.85;22.63;;;1.80;99.90;;;;;;5023490;28;20274;-38
2023/12/04 02:51:57;;;;;;;37.78;21.63;;;1.80;99.90;;;;;;5022283;28;20291;-35
2023/12/04 02:54:23;;;;;;;38.08;22.20;;;1.80;99.90;;;;;;5022743;28;20188;-37
2023/12/04 02:56:50;;;;;;;38.08;21.45;;;1.80;99.90;;;;;;5022793;28;20766;-37
2023/12/04 02:59:16;;;;;;;38.70;22.30;;;1.90;99.90;;;;;;5022836;28;20196;-37
2023/12/04 03:01:42;;;;;;;39.13;21.60;;;1.80;99.90;;;;;;5021762;28;20237;-37
2023/12/04 03:04:07;;;;;;;41.35;21.90;;;1.80;99.90;;;;;;5021886;28;20298;-35
2023/12/04 03:06:33;;;;;;;40.30;22.75;;;1.80;99.90;;;;;;5022958;28;20663;-36
2023/12/04 03:08:59;;;;;;;39.80;22.95;;;1.90;99.90;;;;;;5023293;28;20184;-36
2023/12/04 03:11:25;;;;;;;44.55;23.38;;;1.90;99.90;;;;;;5022865;28;20199;-37
2023/12/04 03:13:51;;;;;;;39.05;22.13;;;1.90;99.90;;;;;;5022914;28;20292;-38
2023/12/04 03:16:18;;;;;;;41.08;22.63;;;1.90;99.90;;;;;;5022624;28;20563;-36
2023/12/04 03:18:44;;;;;;;42.08;23.70;;;1.90;99.90;;;;;;5022532;28;20200;-37
2023/12/04 03:21:11;;;;;;;39.60;22.90;;;1.80;99.90;;;;;;5022499;28;20195;-38
2023/12/04 03:23:37;;;;;;;44.55;24.02;;;1.80;99.90;;;;;;5023229;28;20265;-36
2023/12/04 03:26:03;;;;;;;40.50;22.55;;;1.80;99.90;;;;;;5021911;28;20211;-36
2023/12/04 03:28:29;;;;;;;39.83;23.75;;;1.90;99.90;;;;;;5023044;28;20196;-37
2023/12/04 03:30:55;;;;;;;41.17;24.08;;;1.90;99.90;;;;;;5022181;28;20230;-36
2023/12/04 03:33:21;;;;;;;40.83;22.10;;;1.90;99.90;;;;;;5021683;28;20188;-39
2023/12/04 03:35:47;;;;;;;41.67;22.90;;;1.90;99.90;;;;;;5023084;28;20192;-36
2023/12/04 03:38:13;;;;;;;41.83;23.25;;;1.90;99.90;;;;;;5022088;28;20210;-37
2023/12/04 03:40:39;;;;;;;37.83;21.77;;;1.90;99.90;;;;;;5021798;28;20180;-38
2023/12/04 03:43:05;;;;;;;40.22;22.73;;;1.90;99.90;;;;;;5021152;28;20734;-37
2023/12/04 03:45:30;;;;;;;42.08;21.45;;;1.90;99.90;;;;;;5053717;28;20211;-38
2023/12/04 03:47:56;;;;;;;40.80;23.50;;;1.90;99.90;;;;;;5021473;28;20195;-35
2023/12/04 03:50:22;;;;;;;44.42;23.50;;;1.90;99.90;;;;;;5021379;28;20660;-37
2023/12/04 03:52:48;;;;;;;43.72;24.25;;;1.90;99.90;;;;;;5020933;28;20195;-36
2023/12/04 03:55:14;;;;;;;45.95;23.52;;;2.00;99.90;;;;;;5022262;28;20206;-40
2023/12/04 03:57:41;;;;;;;38.60;22.38;;;1.90;99.90;;;;;;5021188;28;20235;-36
2023/12/04 04:00:09;;;;;;;39.55;22.13;;;2.00;99.90;;;;;;5021944;28;20215;-37
2023/12/04 04:02:40;;;;;;;42.67;23.38;;;1.90;99.90;;;;;;5022028;28;20242;-41
2023/12/04 04:05:06;;;;;;;40.13;23.17;;;2.00;99.90;;;;;;5021833;28;20223;-38
2023/12/04 04:07:32;;;;;;;43.05;23.45;;;2.00;99.90;;;;;;5020642;28;20422;-36
2023/12/04 04:09:58;;;;;;;39.10;23.38;;;2.00;99.90;;;;;;5021218;28;20310;-35
2023/12/04 04:12:24;;;;;;;39.53;22.63;;;2.00;99.90;;;;;;5021298;28;20188;-38
2023/12/04 04:14:50;;;;;;;41.75;22.75;;;2.00;99.90;;;;;;5021386;28;20590;-38
2023/12/04 04:17:16;;;;;;;38.00;22.48;;;2.00;99.90;;;;;;5021254;28;20199;-36
2023/12/04 04:19:41;;;;;;;39.08;21.85;;;2.00;99.90;;;;;;5020576;28;20316;-37
2023/12/04 04:22:07;;;;;;;40.00;22.73;;;2.00;99.90;;;;;;5021675;28;20192;-35
2023/12/04 04:24:33;;;;;;;37.33;21.88;;;2.00;99.90;;;;;;5021859;28;20203;-36
2023/12/04 04:26:59;;;;;;;40.92;23.25;;;2.00;99.90;;;;;;5021722;28;20219;-38
2023/12/04 04:29:25;;;;;;;41.45;23.08;;;2.10;99.90;;;;;;5021518;28;20191;-37
2023/12/04 04:31:51;;;;;;;38.83;22.75;;;2.00;99.90;;;;;;5051950;28;20203;-37
2023/12/04 04:34:17;;;;;;;42.75;23.42;;;2.10;99.90;;;;;;5021527;28;20187;-40
2023/12/04 04:36:43;;;;;;;43.72;22.95;;;2.10;99.90;;;;;;5021311;28;20196;-37
2023/12/04 04:39:13;;;;;;;37.05;21.65;;;2.10;99.90;;;;;;5020803;28;20196;-35
2023/12/04 04:41:39;;;;;;;39.70;22.25;;;2.10;99.90;;;;;;5020938;28;20188;-38
2023/12/04 04:44:06;;;;;;;42.05;23.50;;;2.10;99.90;;;;;;5020737;28;20200;-37
2023/12/04 04:46:31;;;;;;;41.60;23.52;;;2.10;99.90;;;;;;5020419;28;20585;-34
2023/12/04 04:48:57;;;;;;;39.63;22.10;;;2.10;99.90;;;;;;5020804;28;20168;-36
2023/12/04 04:51:23;;;;;;;40.38;23.25;;;2.10;99.90;;;;;;5018879;28;20191;-36
2023/12/04 04:53:49;;;;;;;40.30;23.55;;;2.10;99.90;;;;;;5021414;28;20183;-38
2023/12/04 04:56:15;;;;;;;37.47;21.48;;;2.10;99.90;;;;;;5021111;28;20187;-38
2023/12/04 04:58:41;;;;;;;40.92;22.60;;;2.10;99.90;;;;;;5021291;28;20195;-36
2023/12/04 05:01:08;;;;;;;36.65;21.63;;;2.10;99.90;;;;;;5020422;28;20179;-35
2023/12/04 05:03:34;;;;;;;39.03;21.88;;;2.10;99.90;;;;;;5020107;28;20267;-38
2023/12/04 05:06:00;;;;;;;38.92;21.08;;;2.10;99.90;;;;;;5020871;28;20323;-36
2023/12/04 05:08:26;;;;;;;37.97;21.50;;;2.10;99.90;;;;;;5020008;28;20401;-37
2023/12/04 05:10:52;;;;;;;37.95;20.67;;;2.10;99.90;;;;;;5019871;28;20564;-37
2023/12/04 05:13:18;;;;;;;39.15;22.38;;;2.20;99.90;;;;;;5016335;28;20262;-38
2023/12/04 05:15:44;;;;;;;39.45;22.77;;;2.20;99.90;;;;;;5021078;28;20192;-38
2023/12/04 05:18:10;;;;;;;41.00;22.80;;;2.20;99.90;;;;;;5019452;28;20210;-37
2023/12/04 05:20:35;;;;;;;37.92;21.83;;;2.20;99.90;;;;;;5019981;28;20206;-38
2023/12/04 05:23:01;;;;;;;38.53;21.65;;;2.20;99.90;;;;;;5020797;28;20191;-38
2023/12/04 05:25:27;;;;;;;41.63;22.38;;;2.20;99.90;;;;;;5021058;28;20187;-37
2023/12/04 05:27:53;;;;;;;39.15;22.05;;;2.20;99.90;;;;;;5020285;28;20676;-37
2023/12/04 05:30:19;;;;;;;41.47;22.70;;;2.20;99.90;;;;;;5018794;28;20190;-36
2023/12/04 05:32:45;;;;;;;43.58;22.42;;;2.10;99.90;;;;;;5020774;28;20192;-38
2023/12/04 05:35:11;;;;;;;38.33;21.77;;;2.10;99.90;;;;;;5020662;28;20267;-36
2023/12/04 05:37:37;;;;;;;41.17;22.27;;;2.10;99.90;;;;;;5020690;28;20188;-38
2023/12/04 05:40:04;;;;;;;40.42;21.75;;;2.10;99.90;;;;;;5020248;28;20269;-38
2023/12/04 05:42:30;;;;;;;37.78;22.38;;;2.10;99.90;;;;;;5018872;28;20234;-36
2023/12/04 05:44:57;;;;;;;35.85;20.50;;;2.10;99.90;;;;;;5020544;28;20207;-37
2023/12/04 05:47:23;;;;;;;37.90;21.85;;;2.10;99.90;;;;;;5020247;28;20208;-34
2023/12/04 05:49:49;;;;;;;40.25;21.25;;;2.10;99.90;;;;;;5019438;28;20194;-35
2023/12/04 05:52:14;;;;;;;37.03;20.70;;;2.10;99.90;;;;;;5051911;28;20195;-40
2023/12/04 05:54:40;;;;;;;35.00;20.40;;;2.10;99.90;;;;;;5020697;28;20675;-37
2023/12/04 05:57:06;;;;;;;35.03;20.70;;;2.10;99.90;;;;;;5019425;28;20207;-37
2023/12/04 05:59:32;;;;;;;37.65;20.67;;;2.10;99.90;;;;;;5019457;28;20621;-38
2023/12/04 06:01:58;;;;;;;37.60;19.90;;;2.20;99.90;;;;;;5051923;28;20200;-34
2023/12/04 06:04:24;;;;;;;38.30;21.10;;;2.20;99.90;;;;;;5019955;28;20192;-38
2023/12/04 06:06:49;;;;;;;38.58;19.90;;;2.20;99.90;;;;;;5020826;28;20818;-35
2023/12/04 06:09:16;;;;;;;39.67;21.17;;;2.20;99.90;;;;;;5019354;28;20206;-41
2023/12/04 06:11:42;;;;;;;37.10;20.90;;;2.20;99.90;;;;;;5051883;28;20230;-37
2023/12/04 06:14:08;;;;;;;36.10;20.55;;;2.20;99.90;;;;;;5020271;28;20637;-35
2023/12/04 06:16:34;;;;;;;37.53;23.88;;;2.20;99.90;;;;;;5021120;28;20441;-37
2023/12/04 06:19:00;;;;;;;35.60;20.92;;;2.40;99.90;;;;;;5038481;28;20203;-36
2023/12/04 06:21:26;;;;;;;33.80;19.90;;;2.30;99.90;;;;;;5023674;28;20206;-37
2023/12/04 06:23:52;;;;;;;35.60;19.95;;;2.30;99.90;;;;;;5023193;28;20192;-37
2023/12/04 06:26:18;;;;;;;37.60;20.45;;;2.30;99.90;;;;;;5022530;28;20230;-37
2023/12/04 06:28:45;;;;;;;34.58;20.45;;;2.40;99.90;;;;;;5022796;28;20195;-38
2023/12/04 06:31:11;;;;;;;34.35;19.55;;;2.40;99.90;;;;;;5021982;28;20652;-37
2023/12/04 06:33:37;;;;;;;38.22;19.63;;;2.40;99.90;;;;;;5055096;28;20192;-37
2023/12/04 06:36:06;;;;;;;34.92;20.23;;;2.40;99.90;;;;;;5023046;28;20565;-36
2023/12/04 06:38:36;;;;;;;33.45;19.20;;;2.40;99.90;;;;;;5023241;28;20180;-36
2023/12/04 06:41:02;;;;;;;36.38;20.08;;;2.40;99.90;;;;;;5023043;28;20176;-37
2023/12/04 06:43:28;;;;;;;35.83;19.50;;;2.30;99.90;;;;;;5023695;28;20196;-37
2023/12/04 06:45:57;;;;;;;36.60;19.95;;;2.30;99.90;;;;;;5054516;28;20219;-36
2023/12/04 06:48:23;;;;;;;31.77;18.80;;;2.40;99.90;;;;;;5022023;28;20263;-37
2023/12/04 06:50:49;;;;;;;33.78;19.95;;;2.40;99.90;;;;;;5020316;28;20708;-39
2023/12/04 06:53:14;;;;;;;35.35;20.25;;;2.40;99.90;;;;;;5022389;28;20283;-39
2023/12/04 06:55:40;;;;;;;34.95;19.85;;;2.40;99.90;;;;;;5021454;28;20230;-38
2023/12/04 06:58:06;;;;;;;35.22;19.30;;;2.40;99.90;;;;;;5023096;28;20217;-35
2023/12/04 07:00:32;;;;;;;34.38;19.38;;;2.40;99.90;;;;;;5021476;28;20206;-37
2023/12/04 07:02:58;;;;;;;35.60;20.10;;;2.40;99.90;;;;;;5020486;28;20265;-35
2023/12/04 07:05:24;;;;;;;33.67;19.08;;;2.40;99.90;;;;;;5021215;28;20704;-36
2023/12/04 07:07:50;;;;;;;33.95;19.75;;;2.40;99.90;;;;;;5022190;28;20196;-35
2023/12/04 07:10:16;;;;;;;32.88;19.30;;;2.40;99.90;;;;;;5022680;28;20294;-36
2023/12/04 07:12:42;;;;;;;35.78;19.50;;;2.30;99.90;;;;;;5023034;28;20195;-36
2023/12/04 07:15:09;;;;;;;35.75;20.17;;;2.30;99.90;;;;;;5021937;28;20651;-38
2023/12/04 07:17:36;;;;;;;35.40;19.55;;;2.30;99.90;;;;;;5021410;28;20192;-36
2023/12/04 07:20:02;;;;;;;29.38;17.95;;;2.40;99.90;;;;;;5019339;28;20187;-35
2023/12/04 07:22:28;;;;;;;34.85;20.00;;;2.30;99.90;;;;;;5021986;28;20275;-34
2023/12/04 07:24:54;;;;;;;31.33;18.85;;;2.30;99.90;;;;;;5020858;28;20377;-35
2023/12/04 07:27:20;;;;;;;36.42;19.75;;;2.30;99.90;;;;;;5053706;28;20216;-38
2023/12/04 07:29:45;;;;;;;37.78;19.95;;;2.30;99.90;;;;;;5020377;28;20600;-45
2023/12/04 07:32:11;;;;;;;32.53;18.98;;;2.20;99.90;;;;;;5019538;28;20656;-36
2023/12/04 07:34:37;;;;;;;31.13;18.02;;;2.30;99.90;;;;;;5021700;28;20656;-36
2023/12/04 07:37:03;;;;;;;31.70;17.50;;;2.30;99.90;;;;;;5021879;28;20329;-35
2023/12/04 07:39:29;;;;;;;42.88;19.00;;;2.30;99.90;;;;;;5020585;28;20295;-38
2023/12/04 07:41:55;;;;;;;31.25;18.42;;;2.20;99.90;;;;;;5022453;28;20278;-39
2023/12/04 07:44:21;;;;;;;35.05;19.45;;;2.30;99.90;;;;;;5021343;28;20199;-37
2023/12/04 07:46:47;;;;;;;28.92;17.85;;;2.30;99.90;;;;;;5021303;28;20289;-37
2023/12/04 07:49:12;;;;;;;31.77;17.90;;;2.30;99.90;;;;;;5021169;28;20235;-37
2023/12/04 07:51:38;;;;;;;40.60;19.75;;;2.40;99.90;;;;;;5020612;28;20188;-39
2023/12/04 07:54:05;;;;;;;34.72;18.45;;;2.40;99.90;;;;;;5020066;28;20196;-36
2023/12/04 07:56:30;;;;;;;32.53;18.13;;;2.40;99.90;;;;;;5021384;28;20283;-37
2023/12/04 07:58:57;;;;;;;32.20;18.13;;;2.40;99.90;;;;;;5020502;28;20664;-37
2023/12/04 08:01:24;;;;;;;30.27;16.98;;;2.50;99.90;;;;;;5018811;28;20239;-38
2023/12/04 08:03:49;;;;;;;31.17;17.30;;;2.50;99.90;;;;;;5020293;28;21635;-37
2023/12/04 08:06:18;;;;;;;31.08;17.73;;;2.50;99.90;;;;;;5021293;28;20235;-38
2023/12/04 08:08:44;;;;;;;31.35;18.20;;;2.50;99.90;;;;;;5021468;28;20199;-37
2023/12/04 08:11:11;;;;;;;30.95;17.30;;;2.50;99.90;;;;;;5021346;28;20674;-37
2023/12/04 08:13:40;;;;;;;29.63;16.95;;;2.60;99.90;;;;;;5020546;28;20195;-34
2023/12/04 08:16:14;;;;;;;31.92;18.38;;;2.60;99.90;;;;;;5019440;28;20204;-36
2023/12/04 08:18:41;;;;;;;31.92;17.98;;;2.60;99.90;;;;;;5021287;28;20187;-39
2023/12/04 08:21:07;;;;;;;29.10;17.35;;;2.70;99.90;;;;;;5020313;28;20707;-37
2023/12/04 08:23:33;;;;;;;27.80;16.42;;;2.70;99.90;;;;;;5019620;28;20995;-38
2023/12/04 08:25:59;;;;;;;29.42;17.45;;;2.70;99.90;;;;;;5020490;28;20211;-38
2023/12/04 08:28:25;;;;;;;27.33;16.05;;;2.70;99.90;;;;;;5020173;28;20188;-36
2023/12/04 08:30:51;;;;;;;31.88;16.92;;;2.70;99.90;;;;;;5020594;28;20187;-36
2023/12/04 08:33:20;;;;;;;30.60;17.27;;;2.80;99.90;;;;;;5018323;28;20302;-38
2023/12/04 08:35:47;;;;;;;26.85;15.88;;;2.70;99.90;;;;;;5020507;28;20192;-35
2023/12/04 08:38:13;;;;;;;26.98;16.70;;;2.70;99.90;;;;;;5020372;28;20263;-37
2023/12/04 08:40:39;;;;;;;26.67;16.08;;;2.80;99.90;;;;;;5019155;28;20333;-36
2023/12/04 08:43:05;;;;;;;27.42;17.05;;;2.80;99.90;;;;;;5019930;28;20180;-35
2023/12/04 08:45:31;;;;;;;27.08;15.63;;;2.80;99.90;;;;;;5018884;28;20726;-36
2023/12/04 08:47:57;;;;;;;26.98;16.30;;;2.80;99.90;;;;;;5018219;28;20258;-38
2023/12/04 08:50:25;;;;;;;23.83;15.00;;;2.90;99.90;;;;;;5019087;28;20207;-36
2023/12/04 08:52:51;;;;;;;28.52;16.23;;;2.90;99.90;;;;;;5020203;28;20188;-34
2023/12/04 08:55:17;;;;;;;25.65;15.30;;;2.90;99.90;;;;;;5020160;28;20184;-38
2023/12/04 08:57:43;;;;;;;25.58;15.30;;;2.90;99.90;;;;;;5018550;28;20187;-39
2023/12/04 09:00:10;;;;;;;25.58;15.80;;;3.00;99.90;;;;;;5019716;28;20194;-36
2023/12/04 09:02:36;;;;;;;25.20;14.63;;;3.00;99.90;;;;;;5052254;28;20250;-36
2023/12/04 09:05:02;;;;;;;27.40;14.93;;;3.00;99.90;;;;;;5051139;28;20318;-37
2023/12/04 09:07:28;;;;;;;23.10;13.48;;;3.00;99.90;;;;;;5018302;28;20213;-37
2023/12/04 09:09:53;;;;;;;24.02;14.10;;;3.10;99.90;;;;;;5019507;28;20181;-37
2023/12/04 09:12:19;;;;;;;23.60;13.50;;;3.10;99.90;;;;;;5019873;28;20196;-37
2023/12/04 09:14:45;;;;;;;23.88;14.20;;;3.10;99.90;;;;;;5020064;28;20246;-38
2023/12/04 09:17:11;;;;;;;22.63;13.77;;;3.10;99.90;;;;;;5019536;28;20192;-35
2023/12/04 09:19:37;;;;;;;24.98;14.43;;;3.20;99.90;;;;;;5020833;28;20198;-39
2023/12/04 09:22:03;;;;;;;22.92;14.18;;;3.20;99.90;;;;;;5019940;28;20246;-38
2023/12/04 09:24:31;;;;;;;21.83;14.23;;;3.20;99.90;;;;;;5017723;28;20192;-38
2023/12/04 09:26:56;;;;;;;28.20;14.18;;;3.20;99.90;;;;;;5018259;28;20252;-36
2023/12/04 09:29:23;;;;;;;21.63;13.32;;;3.20;99.90;;;;;;5019473;28;20307;-36
2023/12/04 09:31:51;;;;;;;23.02;13.85;;;3.20;99.90;;;;;;5019282;28;20188;-35
2023/12/04 09:34:18;;;;;;;21.63;13.52;;;3.30;99.90;;;;;;5019618;28;20188;-36
2023/12/04 09:36:44;;;;;;;21.88;13.50;;;3.30;99.90;;;;;;5019646;28;20763;-35
2023/12/04 09:39:10;;;;;;;22.52;13.27;;;3.30;99.90;;;;;;5020707;28;20347;-39
2023/12/04 09:41:37;;;;;;;22.48;13.10;;;3.30;99.90;;;;;;5018418;28;20245;-37
2023/12/04 09:44:04;;;;;;;21.95;13.73;;;3.30;99.90;;;;;;5019780;28;20219;-36
2023/12/04 09:46:31;;;;;;;24.58;13.77;;;3.40;99.90;;;;;;5019347;28;20659;-34
2023/12/04 09:48:57;;;;;;;19.13;12.93;;;3.40;99.90;;;;;;5019183;28;20180;-34
2023/12/04 09:51:25;;;;;;;21.77;13.15;;;3.40;99.90;;;;;;5021481;28;20641;-36
2023/12/04 09:53:52;;;;;;;21.70;13.02;;;3.40;99.90;;;;;;5022704;28;20253;-35
2023/12/04 09:56:19;;;;;;;22.50;12.95;;;3.40;99.90;;;;;;5023403;28;20191;-38
2023/12/04 09:58:46;;;;;;;21.95;13.13;;;3.50;99.90;;;;;;5056562;28;20196;-36
2023/12/04 10:01:12;;;;;;;20.95;13.23;;;3.50;99.90;;;;;;5022464;28;20270;-42
2023/12/04 10:03:39;;;;;;;22.33;13.50;;;3.50;99.90;;;;;;5024642;28;20187;-38
2023/12/04 10:06:07;;;;;;;24.33;13.30;;;3.50;99.90;;;;;;5023480;28;21290;-37
2023/12/04 10:08:33;;;;;;;24.40;12.80;;;3.60;99.90;;;;;;5023852;28;20203;-39
2023/12/04 10:11:00;;;;;;;21.58;12.77;;;3.60;99.90;;;;;;5023407;28;20199;-38
2023/12/04 10:13:27;;;;;;;21.38;12.25;;;3.70;99.90;;;;;;5023525;28;20196;-35
2023/12/04 10:15:53;;;;;;;21.08;12.88;;;3.70;99.90;;;;;;5023804;28;20200;-37
2023/12/04 10:18:27;;;;;;;20.55;12.68;;;3.70;99.90;;;;;;5022863;28;20199;-37
2023/12/04 10:20:57;;;;;;;20.98;12.23;;;3.70;99.90;;;;;;5022750;28;20279;-36
2023/12/04 10:23:36;;;;;;;17.88;11.63;;;3.80;99.90;;;;;;5023539;28;20199;-37
2023/12/04 10:26:02;;;;;;;19.98;11.88;;;3.80;99.90;;;;;;5022954;28;20222;-38
2023/12/04 10:28:29;;;;;;;19.05;11.95;;;3.90;99.90;;;;;;5023665;28;20199;-37
2023/12/04 10:30:55;;;;;;;18.35;11.45;;;3.80;99.90;;;;;;5022822;28;20516;-37
2023/12/04 10:33:25;;;;;;;18.08;11.70;;;3.80;99.90;;;;;;5023149;28;20187;-36
2023/12/04 10:35:51;;;;;;;18.55;11.65;;;3.90;99.90;;;;;;5023137;28;20580;-35
2023/12/04 10:38:18;;;;;;;20.63;12.20;;;3.80;99.90;;;;;;5023293;28;20187;-38
2023/12/04 10:40:44;;;;;;;19.48;12.20;;;3.90;99.90;;;;;;5023258;28;20613;-38
2023/12/04 10:43:19;;;;;;;20.05;12.25;;;4.00;99.90;;;;;;5023572;28;20196;-34
2023/12/04 10:45:48;;;;;;;18.67;11.15;;;4.00;99.90;;;;;;5005141;28;20243;-35
2023/12/04 10:48:16;;;;;;;18.88;11.60;;;4.00;99.90;;;;;;5023156;28;20738;-38
2023/12/04 10:50:44;;;;;;;17.33;11.35;;;4.00;99.90;;;;;;5021376;28;20261;-37
2023/12/04 10:53:12;;;;;;;17.23;11.15;;;4.00;99.90;;;;;;5022837;28;20184;-36
2023/12/04 10:55:39;;;;;;;17.77;10.43;;;4.00;99.90;;;;;;5023600;28;20187;-37
2023/12/04 10:58:10;;;;;;;20.88;11.20;;;4.00;99.90;;;;;;5022432;28;20184;-38
2023/12/04 11:00:46;;;;;;;16.95;11.00;;;4.00;99.90;;;;;;5021361;28;20230;-38
2023/12/04 11:03:23;;;;;;;17.55;11.05;;;4.00;99.90;;;;;;5023223;28;20175;-36
2023/12/04 11:05:59;;;;;;;15.50;10.48;;;4.00;99.90;;;;;;5017465;28;20220;-38
2023/12/04 11:08:33;;;;;;;18.90;11.35;;;4.00;99.90;;;;;;5017328;28;20194;-39
2023/12/04 11:11:03;;;;;;;18.70;11.05;;;4.00;99.90;;;;;;5017497;28;20225;-37
2023/12/04 11:13:36;;;;;;;18.65;11.20;;;4.00;99.90;;;;;;5017822;28;20830;-35
2023/12/04 11:16:22;;;;;;;16.02;10.43;;;4.00;99.90;;;;;;5016888;28;20195;-37
2023/12/04 11:18:55;;;;;;;18.08;10.90;;;4.00;99.90;;;;;;5016235;28;20208;-37
2023/12/04 11:21:21;;;;;;;19.88;12.77;;;4.10;99.90;;;;;;5017041;28;20227;-35
2023/12/04 11:23:48;;;;;;;20.10;11.55;;;4.20;99.90;;;;;;5018568;28;20307;-36
2023/12/04 11:26:15;;;;;;;17.90;11.38;;;4.20;99.90;;;;;;5017570;28;20250;-39
2023/12/04 11:28:43;;;;;;;18.15;10.85;;;4.30;99.90;;;;;;5008594;28;20574;-38
2023/12/04 11:31:09;;;;;;;18.38;10.63;;;4.30;99.90;;;;;;5018524;28;20306;-37
2023/12/04 11:33:38;;;;;;;17.35;10.75;;;4.40;99.90;;;;;;5021809;28;20198;-35
2023/12/04 11:36:15;;;;;;;15.57;10.00;;;4.40;99.90;;;;;;5022593;28;20200;-38
2023/12/04 11:38:48;;;;;;;17.13;10.40;;;4.40;99.90;;;;;;5008610;28;20711;-38
2023/12/04 11:41:21;;;;;;;16.17;11.02;;;4.40;99.90;;;;;;5022117;28;20292;-39
2023/12/04 11:43:47;;;;;;;16.88;10.32;;;4.50;99.90;;;;;;5021605;28;20561;-35
2023/12/04 11:46:20;;;;;;;17.48;11.15;;;4.60;99.90;;;;;;5022041;28;20207;-35
2023/12/04 11:48:47;;;;;;;18.88;10.93;;;4.60;99.90;;;;;;5021856;28;20200;-37
2023/12/04 11:51:34;;;;;;;15.68;10.20;;;4.70;99.90;;;;;;5021580;28;20176;-37
2023/12/04 11:54:00;;;;;;;17.88;10.60;;;4.70;99.90;;;;;;5021100;28;20206;-38
2023/12/04 11:56:26;;;;;;;17.70;10.13;;;4.70;99.90;;;;;;5021711;28;20260;-35
2023/12/04 11:58:52;;;;;;;17.45;10.82;;;4.60;99.90;;;;;;5019806;28;20184;-37
2023/12/04 12:01:18;;;;;;;16.52;10.70;;;4.70;99.90;;;;;;5022146;28;20528;-38
2023/12/04 12:03:44;;;;;;;18.10;10.68;;;4.70;99.90;;;;;;5021623;28;20885;-37
2023/12/04 12:06:10;;;;;;;16.25;10.40;;;4.70;99.90;;;;;;5020739;28;20258;-38
2023/12/04 12:08:37;;;;;;;17.88;10.60;;;4.70;99.90;;;;;;5021265;28;20219;-40
2023/12/04 12:11:04;;;;;;;15.77;10.32;;;4.70;99.90;;;;;;5020648;28;20254;-36
2023/12/04 12:13:31;;;;;;;14.10;9.93;;;4.70;99.90;;;;;;5019384;28;20187;-38
2023/12/04 12:15:58;;;;;;;15.70;10.50;;;4.60;99.90;;;;;;5021542;28;21273;-38
2023/12/04 12:18:24;;;;;;;15.88;10.80;;;4.60;99.90;;;;;;5021464;28;20666;-36
2023/12/04 12:20:54;;;;;;;16.35;9.93;;;4.60;99.90;;;;;;5021360;28;20188;-39
2023/12/04 12:23:20;;;;;;;15.45;10.13;;;4.60;99.90;;;;;;5018604;28;20869;-39
2023/12/04 12:25:47;;;;;;;16.83;10.43;;;4.60;99.90;;;;;;5020521;28;20274;-38
2023/12/04 12:28:13;;;;;;;19.77;11.00;;;4.60;99.90;;;;;;5021070;28;21158;-38
2023/12/04 12:30:39;;;;;;;16.70;10.68;;;4.50;99.90;;;;;;5020684;28;20195;-38
2023/12/04 12:33:05;;;;;;;17.50;11.23;;;4.60;99.90;;;;;;5019703;28;20192;-38